createdAt,value
2023-04-21T00:01:22.656Z,90
2023-04-21T00:03:22.611Z,90
2023-04-21T00:05:22.015Z,90
2023-04-21T00:07:22.744Z,90
2023-04-21T00:09:21.726Z,90
2023-04-21T00:11:22.404Z,90
2023-04-21T00:13:22.097Z,90
2023-04-21T00:15:22.116Z,90
2023-04-21T00:17:24.711Z,90
2023-04-21T00:19:22.576Z,90
2023-04-21T00:21:21.384Z,90
2023-04-21T00:23:22.392Z,90
2023-04-21T00:25:21.930Z,90
2023-04-21T00:27:22.570Z,90
2023-04-21T00:29:22.460Z,90
2023-04-21T00:31:30.308Z,90
2023-04-21T00:37:21.354Z,90
2023-04-21T00:39:21.852Z,90
2023-04-21T00:41:22.870Z,90
2023-04-21T00:43:22.592Z,90
2023-04-21T00:45:23.216Z,90
2023-04-21T00:47:22.428Z,90
2023-04-21T00:49:20.713Z,90
2023-04-21T00:51:21.684Z,90
2023-04-21T00:53:22.393Z,90
2023-04-21T00:55:22.557Z,90
2023-04-21T00:57:22.565Z,90
2023-04-21T00:59:22.438Z,90
2023-04-21T01:01:18.635Z,90
2023-04-21T01:05:25.988Z,90
2023-04-21T01:07:22.556Z,90
2023-04-21T01:09:22.644Z,90
2023-04-21T01:11:21.941Z,90
2023-04-21T01:13:22.559Z,90
2023-04-21T01:15:22.196Z,90
2023-04-21T01:17:22.414Z,90
2023-04-21T01:19:18.806Z,90
2023-04-21T01:21:22.210Z,90
2023-04-21T01:23:18.674Z,90
2023-04-21T01:25:21.389Z,90
2023-04-21T01:27:21.691Z,90
2023-04-21T01:29:22.457Z,90
2023-04-21T01:31:22.499Z,90
2023-04-21T01:33:18.813Z,90
2023-04-21T01:35:22.444Z,90
2023-04-21T01:37:21.955Z,90
2023-04-21T01:39:21.746Z,90
2023-04-21T01:41:22.444Z,90
2023-04-21T01:45:22.656Z,90
2023-04-21T01:47:22.428Z,90
2023-04-21T01:49:22.618Z,90
2023-04-21T01:51:21.771Z,90
2023-04-21T01:53:20.978Z,90
2023-04-21T01:55:22.085Z,90
2023-04-21T01:57:21.846Z,90
2023-04-21T01:59:21.376Z,90
2023-04-21T02:01:28.885Z,90
2023-04-21T02:03:22.249Z,90
2023-04-21T02:05:22.402Z,90
2023-04-21T02:07:22.029Z,91
2023-04-21T02:09:21.938Z,91
2023-04-21T02:11:22.177Z,90
2023-04-21T02:13:22.333Z,90
2023-04-21T02:15:21.339Z,91
2023-04-21T02:17:22.427Z,91
2023-04-21T02:19:21.576Z,91
2023-04-21T02:21:21.908Z,91
2023-04-21T02:23:22.407Z,91
2023-04-21T02:25:22.539Z,91
2023-04-21T02:27:21.356Z,91
2023-04-21T02:29:21.782Z,91
2023-04-21T02:31:22.701Z,91
2023-04-21T02:33:20.177Z,91
2023-04-21T02:35:21.496Z,91
2023-04-21T02:37:21.996Z,91
2023-04-21T02:39:21.804Z,91
2023-04-21T02:41:21.662Z,91
2023-04-21T02:43:22.368Z,91
2023-04-21T02:45:22.637Z,91
2023-04-21T02:47:21.408Z,91
2023-04-21T02:49:22.398Z,91
2023-04-21T02:51:21.924Z,91
2023-04-21T02:53:22.540Z,91
2023-04-21T02:55:22.402Z,91
2023-04-21T02:57:22.184Z,91
2023-04-21T02:59:22.629Z,91
2023-04-21T03:01:22.784Z,91
2023-04-21T03:03:22.708Z,91
2023-04-21T03:05:24.542Z,91
2023-04-21T03:07:22.461Z,91
2023-04-21T03:09:28.107Z,91
2023-04-21T03:11:22.569Z,91
2023-04-21T03:13:22.460Z,91
2023-04-21T03:15:21.668Z,91
2023-04-21T03:17:22.570Z,91
2023-04-21T03:19:22.428Z,91
2023-04-21T03:21:22.559Z,91
2023-04-21T03:23:22.562Z,91
2023-04-21T03:25:22.574Z,91
2023-04-21T03:27:22.070Z,91
2023-04-21T03:29:18.883Z,91
2023-04-21T03:31:21.574Z,91
2023-04-21T03:33:19.023Z,91
2023-04-21T03:35:20.570Z,91
2023-04-21T03:37:24.612Z,91
2023-04-21T03:39:21.258Z,91
2023-04-21T03:41:24.586Z,91
2023-04-21T03:43:24.361Z,91
2023-04-21T03:45:21.284Z,91
2023-04-21T03:47:21.027Z,91
2023-04-21T03:49:18.859Z,91
2023-04-21T03:51:21.282Z,91
2023-04-21T03:53:22.481Z,91
2023-04-21T03:55:22.505Z,91
2023-04-21T03:59:19.430Z,91
2023-04-21T04:01:20.055Z,91
2023-04-21T04:03:23.453Z,91
2023-04-21T04:05:28.645Z,91
2023-04-21T04:07:18.733Z,91
2023-04-21T04:09:21.700Z,91
2023-04-21T04:11:18.855Z,91
2023-04-21T04:13:21.545Z,91
2023-04-21T04:17:22.411Z,91
2023-04-21T04:19:18.971Z,91
2023-04-21T04:21:20.068Z,91
2023-04-21T04:25:20.517Z,91
2023-04-21T04:27:21.552Z,91
2023-04-21T04:29:22.762Z,91
2023-04-21T04:31:18.743Z,91
2023-04-21T04:33:19.968Z,91
2023-04-21T04:35:22.006Z,91
2023-04-21T04:37:19.012Z,92
2023-04-21T04:39:24.907Z,91
2023-04-21T04:41:19.089Z,91
2023-04-21T04:43:31.223Z,92
2023-04-21T04:45:18.972Z,92
2023-04-21T04:47:20.929Z,92
2023-04-21T04:49:18.922Z,92
2023-04-21T04:51:18.716Z,92
2023-04-21T04:57:21.133Z,92
2023-04-21T04:59:18.790Z,92
2023-04-21T05:01:30.297Z,92
2023-04-21T05:03:22.647Z,92
2023-04-21T05:05:22.380Z,92
2023-04-21T05:07:30.124Z,92
2023-04-21T05:09:21.543Z,92
2023-04-21T05:11:22.450Z,92
2023-04-21T05:15:22.450Z,92
2023-04-21T05:17:26.656Z,92
2023-04-21T05:21:22.477Z,92
2023-04-21T05:23:24.888Z,92
2023-04-21T05:27:21.664Z,91
2023-04-21T05:29:28.899Z,91
2023-04-21T05:31:25.572Z,91
2023-04-21T05:33:22.688Z,91
2023-04-21T05:39:20.976Z,91
2023-04-21T05:41:29.734Z,91
2023-04-21T05:45:22.347Z,91
2023-04-21T05:47:26.834Z,91
2023-04-21T05:49:27.313Z,91
2023-04-21T05:57:20.472Z,90
2023-04-21T05:59:25.125Z,90
2023-04-21T06:01:22.476Z,90
2023-04-21T06:03:22.595Z,90
2023-04-21T06:05:21.331Z,90
2023-04-21T06:07:22.530Z,90
2023-04-21T06:09:26.075Z,88
2023-04-21T06:11:22.657Z,88
2023-04-21T06:13:22.454Z,87
2023-04-21T06:15:28.193Z,87
2023-04-21T06:17:22.476Z,88
2023-04-21T06:21:21.718Z,88
2023-04-21T06:23:22.591Z,89
2023-04-21T06:27:22.481Z,89
2023-04-21T06:29:29.991Z,89
2023-04-21T06:31:22.021Z,89
2023-04-21T06:33:21.296Z,89
2023-04-21T06:35:21.964Z,88
2023-04-21T06:37:30.642Z,88
2023-04-21T06:39:22.466Z,88
2023-04-21T06:41:25.102Z,88
2023-04-21T06:43:21.949Z,88
2023-04-21T06:45:28.774Z,88
2023-04-21T06:47:22.594Z,88
2023-04-21T06:51:22.038Z,89
2023-04-21T06:53:25.820Z,88
2023-04-21T06:57:22.053Z,88
2023-04-21T06:59:26.889Z,88
2023-04-21T07:01:30.052Z,88
2023-04-21T07:03:22.502Z,88
2023-04-21T07:05:24.693Z,87
2023-04-21T07:07:22.630Z,88
2023-04-21T07:09:22.262Z,87
2023-04-21T07:11:27.385Z,87
2023-04-21T07:13:21.497Z,87
2023-04-21T07:15:22.086Z,87
2023-04-21T07:17:24.746Z,87
2023-04-21T07:19:26.921Z,87
2023-04-21T07:21:22.028Z,86
2023-04-21T07:23:27.007Z,86
2023-04-21T07:27:22.361Z,86
2023-04-21T07:29:25.079Z,87
2023-04-21T07:31:21.761Z,86
2023-04-21T07:33:22.348Z,86
2023-04-21T07:35:24.905Z,86
2023-04-21T07:39:21.601Z,86
2023-04-21T07:41:25.074Z,85
2023-04-21T07:45:25.153Z,85
2023-04-21T07:47:22.582Z,85
2023-04-21T07:49:27.931Z,86
2023-04-21T07:51:22.420Z,85
2023-04-21T07:53:22.056Z,84
2023-04-21T07:55:30.972Z,84
2023-04-21T07:57:22.462Z,84
2023-04-21T07:59:27.841Z,83
2023-04-21T08:01:23.174Z,83
2023-04-21T08:05:21.623Z,81
2023-04-21T08:07:30.535Z,81
2023-04-21T08:09:22.791Z,82
2023-04-21T08:11:29.165Z,82
2023-04-21T08:13:23.288Z,81
2023-04-21T08:15:22.546Z,82
2023-04-21T08:17:28.650Z,82
2023-04-21T08:21:21.359Z,83
2023-04-21T08:23:26.442Z,81
2023-04-21T08:27:21.941Z,81
2023-04-21T08:29:27.702Z,82
2023-04-21T08:31:30.599Z,82
2023-04-21T08:33:23.003Z,82
2023-04-21T08:35:22.429Z,82
2023-04-21T08:37:22.084Z,83
2023-04-21T08:39:21.525Z,83
2023-04-21T08:41:22.047Z,83
2023-04-21T08:43:30.851Z,84
2023-04-21T08:45:22.136Z,83
2023-04-21T08:51:22.493Z,83
2023-04-21T08:53:21.661Z,83
2023-04-21T08:55:22.533Z,82
2023-04-21T08:57:22.080Z,82
2023-04-21T08:59:22.637Z,82
2023-04-21T09:01:30.029Z,81
2023-04-21T09:03:25.804Z,82
2023-04-21T09:05:21.885Z,81
2023-04-21T09:09:21.639Z,82
2023-04-21T09:11:22.073Z,82
2023-04-21T09:15:18.854Z,82
2023-04-21T09:17:24.933Z,82
2023-04-21T09:19:24.853Z,82
2023-04-21T09:21:22.058Z,81
2023-04-21T09:23:30.733Z,82
2023-04-21T09:25:24.902Z,82
2023-04-21T09:27:21.628Z,82
2023-04-21T09:29:22.145Z,81
2023-04-21T09:31:20.619Z,82
2023-04-21T09:33:29.309Z,82
2023-04-21T09:35:22.116Z,81
2023-04-21T09:37:30.471Z,82
2023-04-21T09:39:36.046Z,81
2023-04-21T09:41:21.387Z,81
2023-04-21T09:43:21.685Z,81
2023-04-21T09:45:32.726Z,81
2023-04-21T09:47:22.698Z,81
2023-04-21T09:49:22.472Z,81
2023-04-21T09:51:32.612Z,81
2023-04-21T09:53:22.073Z,81
2023-04-21T09:55:30.511Z,81
2023-04-21T09:57:22.578Z,81
2023-04-21T09:59:23.502Z,81
2023-04-21T10:01:21.666Z,81
2023-04-21T10:03:22.720Z,81
2023-04-21T10:05:25.337Z,81
2023-04-21T10:09:21.897Z,81
2023-04-21T10:11:22.543Z,81
2023-04-21T10:13:30.654Z,81
2023-04-21T10:15:21.679Z,81
2023-04-21T10:17:22.484Z,81
2023-04-21T10:21:22.750Z,81
2023-04-21T10:23:21.604Z,81
2023-04-21T10:27:22.513Z,80
2023-04-21T10:29:21.445Z,81
2023-04-21T10:31:22.103Z,81
2023-04-21T10:33:28.011Z,81
2023-04-21T10:35:22.753Z,81
2023-04-21T10:37:30.590Z,81
2023-04-21T10:39:22.835Z,81
2023-04-21T10:41:22.620Z,81
2023-04-21T10:43:22.082Z,81
2023-04-21T10:45:22.122Z,81
2023-04-21T10:47:20.608Z,81
2023-04-21T10:49:30.442Z,80
2023-04-21T10:51:22.694Z,81
2023-04-21T10:53:22.632Z,81
2023-04-21T10:55:30.687Z,80
2023-04-21T10:57:22.642Z,81
2023-04-21T10:59:24.295Z,81
2023-04-21T11:01:21.655Z,80
2023-04-21T11:03:22.102Z,81
2023-04-21T11:05:22.590Z,81
2023-04-21T11:07:30.688Z,80
2023-04-21T11:09:21.594Z,80
2023-04-21T11:11:22.410Z,81
2023-04-21T11:13:22.228Z,81
2023-04-21T11:15:22.754Z,81
2023-04-21T11:17:21.574Z,81
2023-04-21T11:19:30.297Z,80
2023-04-21T11:21:22.542Z,80
2023-04-21T11:23:22.013Z,79
2023-04-21T11:27:22.205Z,80
2023-04-21T11:29:24.457Z,79
2023-04-21T11:31:22.193Z,79
2023-04-21T11:35:22.195Z,80
2023-04-21T11:37:30.532Z,79
2023-04-21T11:39:22.495Z,79
2023-04-21T11:41:22.652Z,80
2023-04-21T11:43:22.114Z,80
2023-04-21T11:45:22.768Z,79
2023-04-21T11:47:22.025Z,80
2023-04-21T11:51:22.602Z,80
2023-04-21T11:53:22.162Z,80
2023-04-21T11:55:30.547Z,80
2023-04-21T11:57:21.789Z,80
2023-04-21T11:59:24.258Z,80
2023-04-21T12:01:27.260Z,79
2023-04-21T12:03:22.251Z,79
2023-04-21T12:05:22.155Z,80
2023-04-21T12:07:22.264Z,78
2023-04-21T12:09:22.198Z,78
2023-04-21T12:11:22.145Z,78
2023-04-21T12:13:22.490Z,78
2023-04-21T12:15:19.071Z,78
2023-04-21T12:17:21.425Z,78
2023-04-21T12:21:22.722Z,77
2023-04-21T12:23:22.633Z,77
2023-04-21T12:27:22.056Z,75
2023-04-21T12:29:21.768Z,74
2023-04-21T12:31:22.099Z,74
2023-04-21T12:33:22.563Z,75
2023-04-21T12:35:22.135Z,74
2023-04-21T12:37:31.338Z,73
2023-04-21T12:39:22.229Z,71
2023-04-21T12:41:22.773Z,71
2023-04-21T12:43:22.048Z,72
2023-04-21T12:45:22.151Z,70
2023-04-21T12:47:22.125Z,69
2023-04-21T12:49:22.101Z,68
2023-04-21T12:51:22.529Z,68
2023-04-21T12:53:22.132Z,67
2023-04-21T12:57:21.935Z,68
2023-04-21T12:59:22.150Z,68
2023-04-21T13:03:21.979Z,68
2023-04-21T13:05:21.652Z,66
2023-04-21T13:07:30.627Z,67
2023-04-21T13:09:20.944Z,68
2023-04-21T13:11:22.102Z,68
2023-04-21T13:13:30.892Z,71
2023-04-21T13:15:29.054Z,69
2023-04-21T13:17:26.328Z,69
2023-04-21T13:19:27.583Z,69
2023-04-21T13:21:21.724Z,66
2023-04-21T13:23:21.453Z,67
2023-04-21T13:25:31.110Z,66
2023-04-21T13:27:22.844Z,65
2023-04-21T13:29:22.594Z,67
2023-04-21T13:33:22.139Z,67
2023-04-21T13:35:22.053Z,66
2023-04-21T13:39:22.177Z,62
2023-04-21T13:41:28.801Z,62
2023-04-21T13:43:22.124Z,62
2023-04-21T13:45:22.057Z,63
2023-04-21T13:47:22.086Z,65
2023-04-21T13:49:21.710Z,64
2023-04-21T13:51:22.226Z,65
2023-04-21T13:53:21.769Z,64
2023-04-21T13:55:22.215Z,64
2023-04-21T13:57:21.303Z,63
2023-04-21T13:59:26.903Z,65
2023-04-21T14:01:22.401Z,66
2023-04-21T14:03:20.131Z,67
2023-04-21T14:05:22.315Z,67
2023-04-21T14:07:22.631Z,65
2023-04-21T14:09:22.148Z,66
2023-04-21T14:11:22.227Z,64
2023-04-21T14:15:21.769Z,66
2023-04-21T14:17:21.704Z,65
2023-04-21T14:19:32.014Z,66
2023-04-21T14:21:22.120Z,65
2023-04-21T14:23:22.124Z,67
2023-04-21T14:25:25.108Z,66
2023-04-21T14:27:21.463Z,65
2023-04-21T14:29:21.321Z,67
2023-04-21T14:31:30.717Z,67
2023-04-21T14:33:22.233Z,66
2023-04-21T14:35:22.183Z,65
2023-04-21T14:37:21.622Z,63
2023-04-21T14:39:22.160Z,63
2023-04-21T14:41:28.081Z,64
2023-04-21T14:43:22.205Z,63
2023-04-21T14:45:21.454Z,64
2023-04-21T14:47:21.522Z,63
2023-04-21T14:51:22.304Z,62
2023-04-21T14:53:21.638Z,63
2023-04-21T14:55:30.812Z,62
2023-04-21T14:57:22.045Z,62
2023-04-21T15:01:23.201Z,64
2023-04-21T15:03:21.820Z,62
2023-04-21T15:05:21.553Z,62
2023-04-21T15:07:24.549Z,61
2023-04-21T15:09:21.860Z,60
2023-04-21T15:11:22.250Z,61
2023-04-21T15:13:21.313Z,62
2023-04-21T15:15:22.091Z,62
2023-04-21T15:17:28.683Z,62
2023-04-21T15:19:23.272Z,62
2023-04-21T15:21:22.085Z,61
2023-04-21T15:23:24.694Z,62
2023-04-21T15:25:22.968Z,62
2023-04-21T15:27:21.829Z,62
2023-04-21T15:29:22.507Z,61
2023-04-21T15:31:22.185Z,62
2023-04-21T15:33:21.657Z,60
2023-04-21T15:35:20.593Z,61
2023-04-21T15:37:25.745Z,61
2023-04-21T15:39:22.165Z,62
2023-04-21T15:41:22.097Z,61
2023-04-21T15:43:23.114Z,62
2023-04-21T15:45:22.166Z,62
2023-04-21T15:47:22.250Z,62
2023-04-21T15:49:24.454Z,62
2023-04-21T15:51:21.580Z,61
2023-04-21T15:53:22.143Z,60
2023-04-21T15:55:20.779Z,61
2023-04-21T15:57:20.626Z,61
2023-04-21T15:59:23.734Z,60
2023-04-21T16:01:21.974Z,59
2023-04-21T16:03:21.814Z,58
2023-04-21T16:05:28.715Z,59
2023-04-21T16:07:22.139Z,58
2023-04-21T16:09:22.125Z,58
2023-04-21T16:11:23.135Z,59
2023-04-21T16:13:22.168Z,59
2023-04-21T16:15:24.560Z,57
2023-04-21T16:17:28.176Z,59
2023-04-21T16:19:22.038Z,58
2023-04-21T16:23:22.321Z,58
2023-04-21T16:25:31.593Z,57
2023-04-21T16:27:22.140Z,57
2023-04-21T16:29:22.104Z,57
2023-04-21T16:31:22.156Z,58
2023-04-21T16:33:22.114Z,56
2023-04-21T16:35:22.186Z,56
2023-04-21T16:37:31.307Z,56
2023-04-21T16:39:22.065Z,56
2023-04-21T16:41:22.100Z,56
2023-04-21T16:43:31.830Z,57
2023-04-21T16:45:22.134Z,56
2023-04-21T16:47:26.468Z,56
2023-04-21T16:49:21.946Z,57
2023-04-21T16:51:22.081Z,57
2023-04-21T16:53:24.696Z,57
2023-04-21T16:55:20.706Z,56
2023-04-21T16:57:20.534Z,56
2023-04-21T16:59:21.693Z,56
2023-04-21T17:01:30.770Z,57
2023-04-21T17:03:21.063Z,57
2023-04-21T17:05:20.603Z,57
2023-04-21T17:07:21.616Z,57
2023-04-21T17:09:25.751Z,57
2023-04-21T17:11:22.082Z,57
2023-04-21T17:13:22.134Z,57
2023-04-21T17:15:22.043Z,57
2023-04-21T17:17:22.287Z,57
2023-04-21T17:21:22.088Z,58
2023-04-21T17:23:24.797Z,57
2023-04-21T17:25:22.188Z,58
2023-04-21T17:27:22.132Z,58
2023-04-21T17:29:21.627Z,58
2023-04-21T17:31:22.115Z,58
2023-04-21T17:33:22.188Z,58
2023-04-21T17:35:22.034Z,58
2023-04-21T17:37:21.769Z,58
2023-04-21T17:39:22.288Z,59
2023-04-21T17:41:21.968Z,59
2023-04-21T17:43:22.107Z,60
2023-04-21T17:45:22.147Z,60
2023-04-21T17:47:22.269Z,60
2023-04-21T17:49:31.082Z,60
2023-04-21T17:51:21.770Z,60
2023-04-21T17:53:22.165Z,60
2023-04-21T17:55:22.059Z,60
2023-04-21T17:57:23.949Z,61
2023-04-21T17:59:22.252Z,62
2023-04-21T18:01:21.984Z,62
2023-04-21T18:03:31.088Z,62
2023-04-21T18:05:22.142Z,63
2023-04-21T18:07:30.996Z,63
2023-04-21T18:09:22.077Z,63
2023-04-21T18:11:28.843Z,63
2023-04-21T18:13:22.141Z,63
2023-04-21T18:15:22.059Z,64
2023-04-21T18:17:20.678Z,64
2023-04-21T18:19:21.424Z,64
2023-04-21T18:21:29.308Z,64
2023-04-21T18:23:21.640Z,64
2023-04-21T18:25:41.241Z,65
2023-04-21T18:27:21.737Z,65
2023-04-21T18:29:21.863Z,65
2023-04-21T18:33:22.001Z,65
2023-04-21T18:35:22.263Z,65
2023-04-21T18:37:21.700Z,65
2023-04-21T18:39:22.113Z,66
2023-04-21T18:41:22.119Z,66
2023-04-21T18:43:22.152Z,66
2023-04-21T18:47:21.688Z,66
2023-04-21T18:49:22.141Z,66
2023-04-21T18:51:22.077Z,66
2023-04-21T18:53:21.719Z,66
2023-04-21T18:55:22.194Z,66
2023-04-21T18:57:25.425Z,66
2023-04-21T18:59:20.529Z,66
2023-04-21T19:01:22.208Z,66
2023-04-21T19:03:22.062Z,66
2023-04-21T19:05:21.695Z,66
2023-04-21T19:07:31.054Z,66
2023-04-21T19:09:22.135Z,66
2023-04-21T19:11:28.377Z,66
2023-04-21T19:13:21.675Z,66
2023-04-21T19:15:22.179Z,66
2023-04-21T19:17:22.284Z,66
2023-04-21T19:19:30.805Z,66
2023-04-21T19:21:21.404Z,66
2023-04-21T19:23:22.149Z,66
2023-04-21T19:25:30.813Z,66
2023-04-21T19:27:20.013Z,66
2023-04-21T19:29:21.709Z,66
2023-04-21T19:31:21.933Z,66
2023-04-21T19:33:21.934Z,66
2023-04-21T19:35:22.022Z,71
2023-04-21T19:37:22.078Z,73
2023-04-21T19:39:20.701Z,70
2023-04-21T19:41:22.297Z,69
2023-04-21T19:43:31.325Z,70
2023-04-21T19:45:18.768Z,71
2023-04-21T19:47:22.173Z,69
2023-04-21T19:49:22.244Z,69
2023-04-21T19:51:22.702Z,69
2023-04-21T19:55:26.428Z,69
2023-04-21T19:57:22.221Z,68
2023-04-21T19:59:21.749Z,69
2023-04-21T20:01:22.188Z,69
2023-04-21T20:03:22.154Z,69
2023-04-21T20:05:27.433Z,69
2023-04-21T20:07:29.430Z,69
2023-04-21T20:09:21.502Z,69
2023-04-21T20:11:18.758Z,69
2023-04-21T20:15:23.253Z,69
2023-04-21T20:17:28.291Z,69
2023-04-21T20:19:21.706Z,69
2023-04-21T20:21:22.095Z,69
2023-04-21T20:23:26.642Z,70
2023-04-21T20:25:25.718Z,70
2023-04-21T20:27:22.019Z,70
2023-04-21T20:29:21.919Z,70
2023-04-21T20:31:22.061Z,70
2023-04-21T20:33:25.016Z,70
2023-04-21T20:35:22.162Z,70
2023-04-21T20:37:22.098Z,70
2023-04-21T20:39:21.659Z,71
2023-04-21T20:41:20.677Z,71
2023-04-21T20:43:22.108Z,71
2023-04-21T20:45:22.090Z,71
2023-04-21T20:49:21.900Z,71
2023-04-21T20:51:22.070Z,71
2023-04-21T20:53:22.032Z,71
2023-04-21T20:55:22.332Z,71
2023-04-21T20:57:20.563Z,72
2023-04-21T20:59:22.100Z,72
2023-04-21T21:01:22.208Z,72
2023-04-21T21:03:21.468Z,72
2023-04-21T21:05:25.392Z,72
2023-04-21T21:07:22.007Z,72
2023-04-21T21:09:22.076Z,72
2023-04-21T21:11:22.082Z,73
2023-04-21T21:13:31.166Z,75
2023-04-21T21:15:21.988Z,76
2023-04-21T21:19:22.068Z,77
2023-04-21T21:21:24.817Z,78
2023-04-21T21:23:21.606Z,78
2023-04-21T21:25:21.855Z,78
2023-04-21T21:27:22.142Z,78
2023-04-21T21:29:22.066Z,78
2023-04-21T21:31:22.141Z,78
2023-04-21T21:33:21.963Z,78
2023-04-21T21:35:22.148Z,78
2023-04-21T21:37:31.363Z,78
2023-04-21T21:39:22.101Z,78
2023-04-21T21:41:22.103Z,77
2023-04-21T21:43:20.641Z,76
2023-04-21T21:47:22.307Z,75
2023-04-21T21:49:22.109Z,75
2023-04-21T21:51:21.808Z,77
2023-04-21T21:53:22.122Z,78
2023-04-21T21:55:20.616Z,78
2023-04-21T21:57:21.624Z,79
2023-04-21T21:59:22.128Z,78
2023-04-21T22:01:22.393Z,78
2023-04-21T22:03:26.348Z,77
2023-04-21T22:05:21.644Z,76
2023-04-21T22:07:22.170Z,76
2023-04-21T22:09:22.067Z,77
2023-04-21T22:11:22.193Z,78
2023-04-21T22:13:21.660Z,78
2023-04-21T22:15:22.066Z,78
2023-04-21T22:19:23.708Z,79
2023-04-21T22:21:20.653Z,79
2023-04-21T22:23:21.691Z,79
2023-04-21T22:25:29.602Z,79
2023-04-21T22:27:22.040Z,78
2023-04-21T22:29:21.902Z,79
2023-04-21T22:31:22.143Z,79
2023-04-21T22:33:22.127Z,79
2023-04-21T22:35:22.143Z,79
2023-04-21T22:37:20.623Z,79
2023-04-21T22:39:22.086Z,80
2023-04-21T22:41:22.213Z,80
2023-04-21T22:43:25.237Z,80
2023-04-21T22:45:22.151Z,81
2023-04-21T22:47:21.882Z,81
2023-04-21T22:49:22.031Z,81
2023-04-21T22:51:22.219Z,81
2023-04-21T22:53:22.104Z,81
2023-04-21T22:55:28.523Z,81
2023-04-21T22:57:22.100Z,81
2023-04-21T22:59:22.113Z,81
2023-04-21T23:01:22.296Z,81
2023-04-21T23:03:22.205Z,81
2023-04-21T23:05:22.107Z,81
2023-04-21T23:07:22.221Z,81
2023-04-21T23:09:22.098Z,81
2023-04-21T23:11:23.242Z,81
2023-04-21T23:13:22.077Z,81
2023-04-21T23:15:22.122Z,81
2023-04-21T23:17:25.626Z,81
2023-04-21T23:19:22.065Z,81
2023-04-21T23:21:21.755Z,81
2023-04-21T23:23:21.856Z,82
2023-04-21T23:25:22.154Z,82
2023-04-21T23:27:30.064Z,82
2023-04-21T23:29:22.183Z,81
2023-04-21T23:33:22.107Z,81
2023-04-21T23:35:22.114Z,81
2023-04-21T23:39:22.234Z,81
2023-04-21T23:41:27.961Z,81
2023-04-21T23:43:20.589Z,81
2023-04-21T23:45:22.109Z,81
2023-04-21T23:47:22.230Z,81
2023-04-21T23:49:22.107Z,81
2023-04-21T23:51:23.013Z,81
2023-04-21T23:53:22.004Z,82
2023-04-21T23:55:22.078Z,82
2023-04-21T23:57:22.217Z,81
2023-04-21T23:59:29.691Z,81
